sensor_id;sensor_type;location;lat;lon;timestamp;P1;durP1;ratioP1;P2;durP2;ratioP2
71176;SDS011;58877;51.992;4.504;2022-07-10T00:00:38;2.62;;;2.59;;
71176;SDS011;58877;51.992;4.504;2022-07-10T00:03:05;2.58;;;2.50;;
71176;SDS011;58877;51.992;4.504;2022-07-10T00:05:31;2.68;;;2.61;;
71176;SDS011;58877;51.992;4.504;2022-07-10T00:07:59;2.43;;;2.36;;
71176;SDS011;58877;51.992;4.504;2022-07-10T00:10:26;2.36;;;2.29;;
71176;SDS011;58877;51.992;4.504;2022-07-10T00:12:54;2.54;;;2.50;;
71176;SDS011;58877;51.992;4.504;2022-07-10T00:15:20;2.23;;;2.22;;
71176;SDS011;58877;51.992;4.504;2022-07-10T00:17:47;2.29;;;2.27;;
71176;SDS011;58877;51.992;4.504;2022-07-10T00:20:14;2.69;;;2.59;;
71176;SDS011;58877;51.992;4.504;2022-07-10T00:22:41;2.35;;;2.24;;
71176;SDS011;58877;51.992;4.504;2022-07-10T00:25:09;2.45;;;2.34;;
71176;SDS011;58877;51.992;4.504;2022-07-10T00:27:38;2.33;;;2.22;;
71176;SDS011;58877;51.992;4.504;2022-07-10T00:30:05;2.30;;;2.18;;
71176;SDS011;58877;51.992;4.504;2022-07-10T00:32:32;1.99;;;1.94;;
71176;SDS011;58877;51.992;4.504;2022-07-10T00:34:57;2.29;;;2.17;;
71176;SDS011;58877;51.992;4.504;2022-07-10T00:37:23;2.01;;;1.90;;
71176;SDS011;58877;51.992;4.504;2022-07-10T00:39:49;2.33;;;2.21;;
71176;SDS011;58877;51.992;4.504;2022-07-10T00:42:17;2.13;;;2.06;;
71176;SDS011;58877;51.992;4.504;2022-07-10T00:44:43;1.89;;;1.89;;
71176;SDS011;58877;51.992;4.504;2022-07-10T00:47:09;1.98;;;1.98;;
71176;SDS011;58877;51.992;4.504;2022-07-10T00:49:37;1.95;;;1.91;;
71176;SDS011;58877;51.992;4.504;2022-07-10T00:52:10;2.11;;;2.05;;
71176;SDS011;58877;51.992;4.504;2022-07-10T00:54:37;2.11;;;2.08;;
71176;SDS011;58877;51.992;4.504;2022-07-10T00:57:07;2.23;;;2.08;;
71176;SDS011;58877;51.992;4.504;2022-07-10T00:59:34;2.25;;;2.06;;
71176;SDS011;58877;51.992;4.504;2022-07-10T01:02:03;2.25;;;2.09;;
71176;SDS011;58877;51.992;4.504;2022-07-10T01:04:32;2.23;;;2.10;;
71176;SDS011;58877;51.992;4.504;2022-07-10T01:06:58;2.38;;;2.21;;
71176;SDS011;58877;51.992;4.504;2022-07-10T01:09:25;2.50;;;2.33;;
71176;SDS011;58877;51.992;4.504;2022-07-10T01:11:54;2.17;;;2.03;;
71176;SDS011;58877;51.992;4.504;2022-07-10T01:14:21;2.39;;;2.21;;
71176;SDS011;58877;51.992;4.504;2022-07-10T01:16:47;2.44;;;2.23;;
71176;SDS011;58877;51.992;4.504;2022-07-10T01:19:14;2.10;;;1.92;;
71176;SDS011;58877;51.992;4.504;2022-07-10T01:21:40;2.04;;;1.92;;
71176;SDS011;58877;51.992;4.504;2022-07-10T01:24:06;1.96;;;1.94;;
71176;SDS011;58877;51.992;4.504;2022-07-10T01:26:34;2.25;;;2.10;;
71176;SDS011;58877;51.992;4.504;2022-07-10T01:29:05;2.28;;;2.11;;
71176;SDS011;58877;51.992;4.504;2022-07-10T01:31:32;2.17;;;2.03;;
71176;SDS011;58877;51.992;4.504;2022-07-10T01:34:02;2.15;;;2.04;;
71176;SDS011;58877;51.992;4.504;2022-07-10T01:36:32;2.05;;;1.96;;
71176;SDS011;58877;51.992;4.504;2022-07-10T01:39:01;2.08;;;1.99;;
71176;SDS011;58877;51.992;4.504;2022-07-10T01:41:29;2.12;;;2.02;;
71176;SDS011;58877;51.992;4.504;2022-07-10T01:43:54;2.18;;;2.06;;
71176;SDS011;58877;51.992;4.504;2022-07-10T01:46:20;2.32;;;2.17;;
71176;SDS011;58877;51.992;4.504;2022-07-10T01:48:49;2.27;;;2.11;;
71176;SDS011;58877;51.992;4.504;2022-07-10T01:51:15;2.15;;;2.01;;
71176;SDS011;58877;51.992;4.504;2022-07-10T01:53:41;2.14;;;1.97;;
71176;SDS011;58877;51.992;4.504;2022-07-10T01:56:11;2.09;;;1.95;;
71176;SDS011;58877;51.992;4.504;2022-07-10T01:58:38;1.99;;;1.87;;
71176;SDS011;58877;51.992;4.504;2022-07-10T02:01:08;2.30;;;2.15;;
71176;SDS011;58877;51.992;4.504;2022-07-10T02:03:34;2.10;;;1.96;;
71176;SDS011;58877;51.992;4.504;2022-07-10T02:06:19;1.80;;;1.68;;
71176;SDS011;58877;51.992;4.504;2022-07-10T02:08:45;2.02;;;1.89;;
71176;SDS011;58877;51.992;4.504;2022-07-10T02:11:14;2.09;;;1.95;;
71176;SDS011;58877;51.992;4.504;2022-07-10T02:13:40;2.20;;;2.08;;
71176;SDS011;58877;51.992;4.504;2022-07-10T02:16:05;2.12;;;2.02;;
71176;SDS011;58877;51.992;4.504;2022-07-10T02:18:31;2.00;;;1.89;;
71176;SDS011;58877;51.992;4.504;2022-07-10T02:20:57;2.12;;;1.99;;
71176;SDS011;58877;51.992;4.504;2022-07-10T02:23:23;2.20;;;2.04;;
71176;SDS011;58877;51.992;4.504;2022-07-10T02:25:49;2.10;;;1.94;;
71176;SDS011;58877;51.992;4.504;2022-07-10T02:28:14;2.02;;;1.87;;
71176;SDS011;58877;51.992;4.504;2022-07-10T02:30:40;2.14;;;1.95;;
71176;SDS011;58877;51.992;4.504;2022-07-10T02:33:07;1.88;;;1.73;;
71176;SDS011;58877;51.992;4.504;2022-07-10T02:35:33;2.04;;;1.89;;
71176;SDS011;58877;51.992;4.504;2022-07-10T02:37:58;2.33;;;2.17;;
71176;SDS011;58877;51.992;4.504;2022-07-10T02:40:27;2.17;;;2.04;;
71176;SDS011;58877;51.992;4.504;2022-07-10T02:42:52;2.34;;;2.22;;
71176;SDS011;58877;51.992;4.504;2022-07-10T02:45:18;2.18;;;2.07;;
71176;SDS011;58877;51.992;4.504;2022-07-10T02:47:44;2.16;;;2.07;;
71176;SDS011;58877;51.992;4.504;2022-07-10T02:50:09;2.27;;;2.15;;
71176;SDS011;58877;51.992;4.504;2022-07-10T02:52:35;2.28;;;2.23;;
71176;SDS011;58877;51.992;4.504;2022-07-10T02:55:01;2.15;;;2.14;;
71176;SDS011;58877;51.992;4.504;2022-07-10T02:57:26;2.06;;;2.06;;
71176;SDS011;58877;51.992;4.504;2022-07-10T02:59:53;2.20;;;2.11;;
71176;SDS011;58877;51.992;4.504;2022-07-10T03:02:18;2.14;;;2.11;;
71176;SDS011;58877;51.992;4.504;2022-07-10T03:04:44;2.19;;;2.11;;
71176;SDS011;58877;51.992;4.504;2022-07-10T03:07:10;2.24;;;2.15;;
71176;SDS011;58877;51.992;4.504;2022-07-10T03:09:36;2.15;;;2.07;;
71176;SDS011;58877;51.992;4.504;2022-07-10T03:12:01;2.34;;;2.27;;
71176;SDS011;58877;51.992;4.504;2022-07-10T03:14:27;2.40;;;2.31;;
71176;SDS011;58877;51.992;4.504;2022-07-10T03:16:52;2.13;;;2.05;;
71176;SDS011;58877;51.992;4.504;2022-07-10T03:19:18;2.51;;;2.49;;
71176;SDS011;58877;51.992;4.504;2022-07-10T03:21:44;2.50;;;2.46;;
71176;SDS011;58877;51.992;4.504;2022-07-10T03:24:11;2.25;;;2.21;;
71176;SDS011;58877;51.992;4.504;2022-07-10T03:26:39;2.25;;;2.12;;
71176;SDS011;58877;51.992;4.504;2022-07-10T03:29:04;2.37;;;2.22;;
71176;SDS011;58877;51.992;4.504;2022-07-10T03:31:30;2.20;;;2.03;;
71176;SDS011;58877;51.992;4.504;2022-07-10T03:33:57;2.42;;;2.26;;
71176;SDS011;58877;51.992;4.504;2022-07-10T03:36:25;2.26;;;2.11;;
71176;SDS011;58877;51.992;4.504;2022-07-10T03:38:51;2.64;;;2.42;;
71176;SDS011;58877;51.992;4.504;2022-07-10T03:41:17;2.37;;;2.19;;
71176;SDS011;58877;51.992;4.504;2022-07-10T03:43:43;2.60;;;2.39;;
71176;SDS011;58877;51.992;4.504;2022-07-10T03:46:09;2.49;;;2.31;;
71176;SDS011;58877;51.992;4.504;2022-07-10T03:48:35;2.03;;;1.90;;
71176;SDS011;58877;51.992;4.504;2022-07-10T03:51:01;2.06;;;1.93;;
71176;SDS011;58877;51.992;4.504;2022-07-10T03:53:27;2.36;;;2.18;;
71176;SDS011;58877;51.992;4.504;2022-07-10T03:55:53;2.24;;;2.08;;
71176;SDS011;58877;51.992;4.504;2022-07-10T03:58:19;2.27;;;2.11;;
71176;SDS011;58877;51.992;4.504;2022-07-10T04:00:45;1.97;;;1.82;;
71176;SDS011;58877;51.992;4.504;2022-07-10T04:03:11;2.28;;;2.09;;
71176;SDS011;58877;51.992;4.504;2022-07-10T04:05:38;2.15;;;1.94;;
71176;SDS011;58877;51.992;4.504;2022-07-10T04:08:04;2.42;;;2.19;;
71176;SDS011;58877;51.992;4.504;2022-07-10T04:10:31;2.34;;;2.13;;
71176;SDS011;58877;51.992;4.504;2022-07-10T04:12:57;2.48;;;2.19;;
71176;SDS011;58877;51.992;4.504;2022-07-10T04:15:26;2.68;;;2.40;;
71176;SDS011;58877;51.992;4.504;2022-07-10T04:17:55;2.59;;;2.35;;
71176;SDS011;58877;51.992;4.504;2022-07-10T04:20:29;2.63;;;2.32;;
71176;SDS011;58877;51.992;4.504;2022-07-10T04:22:59;2.31;;;2.01;;
71176;SDS011;58877;51.992;4.504;2022-07-10T04:25:41;2.59;;;2.29;;
71176;SDS011;58877;51.992;4.504;2022-07-10T04:28:07;2.52;;;2.23;;
71176;SDS011;58877;51.992;4.504;2022-07-10T04:30:32;2.51;;;2.27;;
71176;SDS011;58877;51.992;4.504;2022-07-10T04:32:58;2.59;;;2.34;;
71176;SDS011;58877;51.992;4.504;2022-07-10T04:35:23;2.39;;;2.15;;
71176;SDS011;58877;51.992;4.504;2022-07-10T04:37:49;2.55;;;2.28;;
71176;SDS011;58877;51.992;4.504;2022-07-10T04:40:14;2.56;;;2.25;;
71176;SDS011;58877;51.992;4.504;2022-07-10T04:42:40;2.80;;;2.45;;
71176;SDS011;58877;51.992;4.504;2022-07-10T04:45:06;2.66;;;2.34;;
71176;SDS011;58877;51.992;4.504;2022-07-10T04:47:31;2.49;;;2.20;;
71176;SDS011;58877;51.992;4.504;2022-07-10T04:49:57;2.57;;;2.29;;
71176;SDS011;58877;51.992;4.504;2022-07-10T04:52:22;2.48;;;2.24;;
71176;SDS011;58877;51.992;4.504;2022-07-10T04:54:48;2.77;;;2.53;;
71176;SDS011;58877;51.992;4.504;2022-07-10T04:57:13;2.66;;;2.41;;
71176;SDS011;58877;51.992;4.504;2022-07-10T04:59:39;2.34;;;2.13;;
71176;SDS011;58877;51.992;4.504;2022-07-10T05:02:04;2.42;;;2.21;;
71176;SDS011;58877;51.992;4.504;2022-07-10T05:04:30;2.52;;;2.26;;
71176;SDS011;58877;51.992;4.504;2022-07-10T05:06:55;2.55;;;2.26;;
71176;SDS011;58877;51.992;4.504;2022-07-10T05:09:21;2.34;;;2.08;;
71176;SDS011;58877;51.992;4.504;2022-07-10T05:11:47;2.36;;;2.11;;
71176;SDS011;58877;51.992;4.504;2022-07-10T05:14:13;2.39;;;2.17;;
71176;SDS011;58877;51.992;4.504;2022-07-10T05:16:38;2.55;;;2.31;;
71176;SDS011;58877;51.992;4.504;2022-07-10T05:19:04;2.17;;;1.98;;
71176;SDS011;58877;51.992;4.504;2022-07-10T05:21:29;2.29;;;2.11;;
71176;SDS011;58877;51.992;4.504;2022-07-10T05:23:55;2.25;;;2.09;;
71176;SDS011;58877;51.992;4.504;2022-07-10T05:26:20;2.03;;;1.88;;
71176;SDS011;58877;51.992;4.504;2022-07-10T05:28:46;2.13;;;1.94;;
71176;SDS011;58877;51.992;4.504;2022-07-10T05:31:12;2.26;;;2.06;;
71176;SDS011;58877;51.992;4.504;2022-07-10T05:33:37;2.36;;;2.14;;
71176;SDS011;58877;51.992;4.504;2022-07-10T05:36:05;2.32;;;2.08;;
71176;SDS011;58877;51.992;4.504;2022-07-10T05:38:32;2.41;;;2.12;;
71176;SDS011;58877;51.992;4.504;2022-07-10T05:40:57;2.38;;;2.08;;
71176;SDS011;58877;51.992;4.504;2022-07-10T05:43:23;2.62;;;2.27;;
71176;SDS011;58877;51.992;4.504;2022-07-10T05:45:49;2.27;;;2.00;;
71176;SDS011;58877;51.992;4.504;2022-07-10T05:48:14;2.24;;;1.99;;
71176;SDS011;58877;51.992;4.504;2022-07-10T05:50:40;2.04;;;1.87;;
71176;SDS011;58877;51.992;4.504;2022-07-10T05:53:06;2.01;;;1.85;;
71176;SDS011;58877;51.992;4.504;2022-07-10T05:55:31;2.16;;;1.98;;
71176;SDS011;58877;51.992;4.504;2022-07-10T05:57:57;2.02;;;1.86;;
71176;SDS011;58877;51.992;4.504;2022-07-10T06:00:24;2.13;;;1.94;;
71176;SDS011;58877;51.992;4.504;2022-07-10T06:02:51;2.38;;;2.15;;
71176;SDS011;58877;51.992;4.504;2022-07-10T06:05:16;2.29;;;2.05;;
71176;SDS011;58877;51.992;4.504;2022-07-10T06:07:42;2.29;;;2.05;;
71176;SDS011;58877;51.992;4.504;2022-07-10T06:10:07;2.19;;;1.98;;
71176;SDS011;58877;51.992;4.504;2022-07-10T06:12:33;2.27;;;2.03;;
71176;SDS011;58877;51.992;4.504;2022-07-10T06:14:59;2.46;;;2.21;;
71176;SDS011;58877;51.992;4.504;2022-07-10T06:17:24;2.53;;;2.27;;
71176;SDS011;58877;51.992;4.504;2022-07-10T06:19:50;2.21;;;2.02;;
71176;SDS011;58877;51.992;4.504;2022-07-10T06:22:23;2.19;;;1.99;;
71176;SDS011;58877;51.992;4.504;2022-07-10T06:24:59;2.02;;;1.82;;
71176;SDS011;58877;51.992;4.504;2022-07-10T06:27:28;2.11;;;1.92;;
71176;SDS011;58877;51.992;4.504;2022-07-10T06:29:54;1.80;;;1.64;;
71176;SDS011;58877;51.992;4.504;2022-07-10T06:32:21;2.33;;;2.15;;
71176;SDS011;58877;51.992;4.504;2022-07-10T06:34:47;2.31;;;2.12;;
71176;SDS011;58877;51.992;4.504;2022-07-10T06:37:13;2.12;;;2.04;;
71176;SDS011;58877;51.992;4.504;2022-07-10T06:39:38;2.00;;;1.96;;
71176;SDS011;58877;51.992;4.504;2022-07-10T06:42:07;2.19;;;2.02;;
71176;SDS011;58877;51.992;4.504;2022-07-10T06:44:32;2.57;;;2.32;;
71176;SDS011;58877;51.992;4.504;2022-07-10T06:46:58;2.36;;;2.10;;
71176;SDS011;58877;51.992;4.504;2022-07-10T06:49:43;2.48;;;2.17;;
71176;SDS011;58877;51.992;4.504;2022-07-10T06:52:11;2.45;;;2.19;;
71176;SDS011;58877;51.992;4.504;2022-07-10T06:54:37;2.18;;;2.03;;
71176;SDS011;58877;51.992;4.504;2022-07-10T06:57:03;2.02;;;1.91;;
71176;SDS011;58877;51.992;4.504;2022-07-10T06:59:30;2.11;;;1.95;;
71176;SDS011;58877;51.992;4.504;2022-07-10T07:01:56;2.23;;;2.04;;
71176;SDS011;58877;51.992;4.504;2022-07-10T07:04:21;2.40;;;2.19;;
71176;SDS011;58877;51.992;4.504;2022-07-10T07:06:47;2.44;;;2.31;;
71176;SDS011;58877;51.992;4.504;2022-07-10T07:09:12;2.23;;;2.08;;
71176;SDS011;58877;51.992;4.504;2022-07-10T07:11:38;2.46;;;2.28;;
71176;SDS011;58877;51.992;4.504;2022-07-10T07:14:03;2.11;;;1.95;;
71176;SDS011;58877;51.992;4.504;2022-07-10T07:16:29;2.05;;;1.94;;
71176;SDS011;58877;51.992;4.504;2022-07-10T07:19:08;2.07;;;1.99;;
71176;SDS011;58877;51.992;4.504;2022-07-10T07:21:36;2.47;;;2.29;;
71176;SDS011;58877;51.992;4.504;2022-07-10T07:24:21;2.07;;;1.94;;
71176;SDS011;58877;51.992;4.504;2022-07-10T07:26:47;2.06;;;1.94;;
71176;SDS011;58877;51.992;4.504;2022-07-10T07:29:17;2.02;;;1.92;;
71176;SDS011;58877;51.992;4.504;2022-07-10T07:31:43;1.76;;;1.66;;
71176;SDS011;58877;51.992;4.504;2022-07-10T07:34:09;2.08;;;1.96;;
71176;SDS011;58877;51.992;4.504;2022-07-10T07:36:35;1.79;;;1.72;;
71176;SDS011;58877;51.992;4.504;2022-07-10T07:39:02;1.73;;;1.70;;
71176;SDS011;58877;51.992;4.504;2022-07-10T07:41:28;1.82;;;1.76;;
71176;SDS011;58877;51.992;4.504;2022-07-10T07:43:54;2.13;;;2.03;;
71176;SDS011;58877;51.992;4.504;2022-07-10T07:46:19;2.11;;;2.00;;
71176;SDS011;58877;51.992;4.504;2022-07-10T07:48:45;1.80;;;1.70;;
71176;SDS011;58877;51.992;4.504;2022-07-10T07:51:11;1.69;;;1.61;;
71176;SDS011;58877;51.992;4.504;2022-07-10T07:53:39;1.73;;;1.64;;
71176;SDS011;58877;51.992;4.504;2022-07-10T07:56:19;2.00;;;1.90;;
71176;SDS011;58877;51.992;4.504;2022-07-10T07:59:06;2.07;;;1.98;;
71176;SDS011;58877;51.992;4.504;2022-07-10T08:01:59;1.77;;;1.71;;
71176;SDS011;58877;51.992;4.504;2022-07-10T08:04:52;1.86;;;1.81;;
71176;SDS011;58877;51.992;4.504;2022-07-10T08:07:37;1.86;;;1.78;;
71176;SDS011;58877;51.992;4.504;2022-07-10T08:10:19;1.82;;;1.80;;
71176;SDS011;58877;51.992;4.504;2022-07-10T08:13:19;1.70;;;1.69;;
71176;SDS011;58877;51.992;4.504;2022-07-10T08:16:01;2.06;;;2.03;;
71176;SDS011;58877;51.992;4.504;2022-07-10T08:18:33;1.98;;;1.91;;
71176;SDS011;58877;51.992;4.504;2022-07-10T08:21:10;2.14;;;2.08;;
71176;SDS011;58877;51.992;4.504;2022-07-10T08:24:13;1.74;;;1.71;;
71176;SDS011;58877;51.992;4.504;2022-07-10T08:26:50;1.50;;;1.46;;
71176;SDS011;58877;51.992;4.504;2022-07-10T08:29:20;1.63;;;1.62;;
71176;SDS011;58877;51.992;4.504;2022-07-10T08:31:50;1.69;;;1.69;;
71176;SDS011;58877;51.992;4.504;2022-07-10T08:34:23;1.71;;;1.71;;
71176;SDS011;58877;51.992;4.504;2022-07-10T08:37:02;1.73;;;1.73;;
71176;SDS011;58877;51.992;4.504;2022-07-10T08:39:45;1.58;;;1.58;;
71176;SDS011;58877;51.992;4.504;2022-07-10T08:42:24;1.57;;;1.56;;
71176;SDS011;58877;51.992;4.504;2022-07-10T08:48:12;1.70;;;1.70;;
71176;SDS011;58877;51.992;4.504;2022-07-10T08:51:10;1.58;;;1.58;;
71176;SDS011;58877;51.992;4.504;2022-07-10T08:53:51;1.85;;;1.81;;
71176;SDS011;58877;51.992;4.504;2022-07-10T08:56:42;1.98;;;1.86;;
71176;SDS011;58877;51.992;4.504;2022-07-10T08:59:10;1.76;;;1.68;;
71176;SDS011;58877;51.992;4.504;2022-07-10T09:01:40;1.62;;;1.61;;
71176;SDS011;58877;51.992;4.504;2022-07-10T09:04:23;1.55;;;1.50;;
71176;SDS011;58877;51.992;4.504;2022-07-10T09:07:03;1.75;;;1.65;;
71176;SDS011;58877;51.992;4.504;2022-07-10T09:09:57;1.64;;;1.59;;
71176;SDS011;58877;51.992;4.504;2022-07-10T09:12:25;1.71;;;1.71;;
71176;SDS011;58877;51.992;4.504;2022-07-10T09:15:06;1.76;;;1.76;;
71176;SDS011;58877;51.992;4.504;2022-07-10T09:18:05;1.80;;;1.79;;
71176;SDS011;58877;51.992;4.504;2022-07-10T09:20:46;2.01;;;2.01;;
71176;SDS011;58877;51.992;4.504;2022-07-10T09:23:23;1.77;;;1.77;;
71176;SDS011;58877;51.992;4.504;2022-07-10T09:26:07;1.79;;;1.79;;
71176;SDS011;58877;51.992;4.504;2022-07-10T09:28:41;2.60;;;2.60;;
71176;SDS011;58877;51.992;4.504;2022-07-10T09:31:12;4.07;;;4.05;;
71176;SDS011;58877;51.992;4.504;2022-07-10T09:33:45;8.67;;;8.29;;
71176;SDS011;58877;51.992;4.504;2022-07-10T09:36:22;5.31;;;4.91;;
71176;SDS011;58877;51.992;4.504;2022-07-10T09:38:53;7.67;;;7.10;;
71176;SDS011;58877;51.992;4.504;2022-07-10T09:41:29;2.01;;;1.88;;
71176;SDS011;58877;51.992;4.504;2022-07-10T09:44:02;1.87;;;1.78;;
71176;SDS011;58877;51.992;4.504;2022-07-10T09:46:36;3.46;;;3.35;;
71176;SDS011;58877;51.992;4.504;2022-07-10T09:49:13;1.97;;;1.91;;
71176;SDS011;58877;51.992;4.504;2022-07-10T09:51:48;1.83;;;1.77;;
71176;SDS011;58877;51.992;4.504;2022-07-10T09:54:25;3.02;;;2.91;;
71176;SDS011;58877;51.992;4.504;2022-07-10T09:57:01;2.04;;;1.98;;
71176;SDS011;58877;51.992;4.504;2022-07-10T09:59:39;1.69;;;1.64;;
71176;SDS011;58877;51.992;4.504;2022-07-10T10:02:19;1.65;;;1.65;;
71176;SDS011;58877;51.992;4.504;2022-07-10T10:05:01;1.72;;;1.72;;
71176;SDS011;58877;51.992;4.504;2022-07-10T10:07:33;1.52;;;1.52;;
71176;SDS011;58877;51.992;4.504;2022-07-10T10:10:32;1.68;;;1.68;;
71176;SDS011;58877;51.992;4.504;2022-07-10T10:13:05;1.56;;;1.56;;
71176;SDS011;58877;51.992;4.504;2022-07-10T10:15:38;1.59;;;1.59;;
71176;SDS011;58877;51.992;4.504;2022-07-10T10:18:05;1.62;;;1.62;;
71176;SDS011;58877;51.992;4.504;2022-07-10T10:20:34;1.71;;;1.71;;
71176;SDS011;58877;51.992;4.504;2022-07-10T10:23:15;1.68;;;1.68;;
71176;SDS011;58877;51.992;4.504;2022-07-10T10:25:44;1.88;;;1.88;;
71176;SDS011;58877;51.992;4.504;2022-07-10T10:28:10;1.76;;;1.76;;
71176;SDS011;58877;51.992;4.504;2022-07-10T10:30:44;1.73;;;1.73;;
71176;SDS011;58877;51.992;4.504;2022-07-10T10:36:03;1.85;;;1.85;;
71176;SDS011;58877;51.992;4.504;2022-07-10T10:41:22;1.64;;;1.64;;
71176;SDS011;58877;51.992;4.504;2022-07-10T10:46:32;1.75;;;1.75;;
71176;SDS011;58877;51.992;4.504;2022-07-10T10:49:06;2.11;;;2.03;;
71176;SDS011;58877;51.992;4.504;2022-07-10T10:54:28;1.83;;;1.81;;
71176;SDS011;58877;51.992;4.504;2022-07-10T10:57:11;1.77;;;1.75;;
71176;SDS011;58877;51.992;4.504;2022-07-10T10:59:44;1.85;;;1.82;;
71176;SDS011;58877;51.992;4.504;2022-07-10T11:02:29;1.61;;;1.61;;
71176;SDS011;58877;51.992;4.504;2022-07-10T11:07:55;1.71;;;1.71;;
71176;SDS011;58877;51.992;4.504;2022-07-10T11:15:48;1.73;;;1.73;;
71176;SDS011;58877;51.992;4.504;2022-07-10T11:18:18;1.74;;;1.74;;
71176;SDS011;58877;51.992;4.504;2022-07-10T11:20:48;1.59;;;1.59;;
71176;SDS011;58877;51.992;4.504;2022-07-10T11:25:51;1.60;;;1.60;;
71176;SDS011;58877;51.992;4.504;2022-07-10T11:31:19;1.35;;;1.35;;
71176;SDS011;58877;51.992;4.504;2022-07-10T11:33:47;1.46;;;1.46;;
71176;SDS011;58877;51.992;4.504;2022-07-10T11:36:14;1.59;;;1.59;;
71176;SDS011;58877;51.992;4.504;2022-07-10T11:38:42;2.25;;;2.25;;
71176;SDS011;58877;51.992;4.504;2022-07-10T11:41:18;2.03;;;2.03;;
71176;SDS011;58877;51.992;4.504;2022-07-10T11:44:14;1.47;;;1.47;;
71176;SDS011;58877;51.992;4.504;2022-07-10T11:46:44;1.44;;;1.44;;
71176;SDS011;58877;51.992;4.504;2022-07-10T12:28:18;1.27;;;1.27;;
71176;SDS011;58877;51.992;4.504;2022-07-10T12:44:44;1.63;;;1.63;;
71176;SDS011;58877;51.992;4.504;2022-07-10T12:47:59;1.49;;;1.49;;
71176;SDS011;58877;51.992;4.504;2022-07-10T12:57:27;1.72;;;1.72;;
71176;SDS011;58877;51.992;4.504;2022-07-10T13:10:58;1.83;;;1.83;;
71176;SDS011;58877;51.992;4.504;2022-07-10T13:13:45;1.89;;;1.89;;
71176;SDS011;58877;51.992;4.504;2022-07-10T13:20:10;1.85;;;1.85;;
71176;SDS011;58877;51.992;4.504;2022-07-10T13:23:13;2.36;;;2.36;;
71176;SDS011;58877;51.992;4.504;2022-07-10T13:27:02;3.02;;;3.02;;
71176;SDS011;58877;51.992;4.504;2022-07-10T13:33:55;2.21;;;2.21;;
71176;SDS011;58877;51.992;4.504;2022-07-10T13:36:43;2.02;;;2.02;;
71176;SDS011;58877;51.992;4.504;2022-07-10T13:43:23;2.00;;;2.00;;
71176;SDS011;58877;51.992;4.504;2022-07-10T13:46:38;1.77;;;1.77;;
71176;SDS011;58877;51.992;4.504;2022-07-10T13:49:17;2.17;;;2.17;;
71176;SDS011;58877;51.992;4.504;2022-07-10T13:52:08;2.07;;;2.07;;
71176;SDS011;58877;51.992;4.504;2022-07-10T14:05:57;1.97;;;1.97;;
71176;SDS011;58877;51.992;4.504;2022-07-10T14:12:31;2.04;;;2.04;;
71176;SDS011;58877;51.992;4.504;2022-07-10T14:15:25;2.39;;;2.39;;
71176;SDS011;58877;51.992;4.504;2022-07-10T14:22:58;2.28;;;2.28;;
71176;SDS011;58877;51.992;4.504;2022-07-10T14:26:36;2.29;;;2.29;;
71176;SDS011;58877;51.992;4.504;2022-07-10T14:33:42;2.31;;;2.31;;
71176;SDS011;58877;51.992;4.504;2022-07-10T14:40:31;2.28;;;2.28;;
71176;SDS011;58877;51.992;4.504;2022-07-10T14:46:56;2.41;;;2.41;;
71176;SDS011;58877;51.992;4.504;2022-07-10T15:06:58;2.17;;;2.17;;
71176;SDS011;58877;51.992;4.504;2022-07-10T15:09:37;2.46;;;2.46;;
71176;SDS011;58877;51.992;4.504;2022-07-10T15:12:41;2.55;;;2.55;;
71176;SDS011;58877;51.992;4.504;2022-07-10T15:32:13;2.95;;;2.95;;
71176;SDS011;58877;51.992;4.504;2022-07-10T15:41:41;2.62;;;2.62;;
71176;SDS011;58877;51.992;4.504;2022-07-10T15:44:19;2.53;;;2.53;;
71176;SDS011;58877;51.992;4.504;2022-07-10T15:46:45;2.57;;;2.57;;
71176;SDS011;58877;51.992;4.504;2022-07-10T15:49:11;2.51;;;2.51;;
71176;SDS011;58877;51.992;4.504;2022-07-10T15:51:37;2.90;;;2.90;;
71176;SDS011;58877;51.992;4.504;2022-07-10T15:54:03;2.59;;;2.59;;
71176;SDS011;58877;51.992;4.504;2022-07-10T15:56:29;2.83;;;2.83;;
71176;SDS011;58877;51.992;4.504;2022-07-10T15:58:55;2.62;;;2.62;;
71176;SDS011;58877;51.992;4.504;2022-07-10T16:01:21;2.65;;;2.65;;
71176;SDS011;58877;51.992;4.504;2022-07-10T16:03:47;2.74;;;2.74;;
71176;SDS011;58877;51.992;4.504;2022-07-10T16:06:14;2.82;;;2.82;;
71176;SDS011;58877;51.992;4.504;2022-07-10T16:08:47;3.05;;;3.05;;
71176;SDS011;58877;51.992;4.504;2022-07-10T16:11:14;3.32;;;3.32;;
71176;SDS011;58877;51.992;4.504;2022-07-10T16:13:41;3.17;;;3.17;;
71176;SDS011;58877;51.992;4.504;2022-07-10T16:16:06;2.88;;;2.88;;
71176;SDS011;58877;51.992;4.504;2022-07-10T16:18:32;3.15;;;3.15;;
71176;SDS011;58877;51.992;4.504;2022-07-10T16:21:05;3.33;;;3.33;;
71176;SDS011;58877;51.992;4.504;2022-07-10T16:23:58;3.12;;;3.12;;
71176;SDS011;58877;51.992;4.504;2022-07-10T16:26:55;3.36;;;3.36;;
71176;SDS011;58877;51.992;4.504;2022-07-10T16:30:02;3.30;;;3.30;;
71176;SDS011;58877;51.992;4.504;2022-07-10T16:35:28;3.35;;;3.35;;
71176;SDS011;58877;51.992;4.504;2022-07-10T16:38:05;3.81;;;3.81;;
71176;SDS011;58877;51.992;4.504;2022-07-10T16:40:34;3.76;;;3.76;;
71176;SDS011;58877;51.992;4.504;2022-07-10T16:43:08;3.77;;;3.77;;
71176;SDS011;58877;51.992;4.504;2022-07-10T16:46:12;3.50;;;3.50;;
71176;SDS011;58877;51.992;4.504;2022-07-10T16:48:52;4.05;;;4.05;;
71176;SDS011;58877;51.992;4.504;2022-07-10T16:51:26;3.46;;;3.46;;
71176;SDS011;58877;51.992;4.504;2022-07-10T16:53:57;3.52;;;3.52;;
71176;SDS011;58877;51.992;4.504;2022-07-10T16:56:28;3.22;;;3.22;;
71176;SDS011;58877;51.992;4.504;2022-07-10T16:59:17;3.43;;;3.43;;
71176;SDS011;58877;51.992;4.504;2022-07-10T17:02:19;3.53;;;3.53;;
71176;SDS011;58877;51.992;4.504;2022-07-10T17:04:53;3.38;;;3.38;;
71176;SDS011;58877;51.992;4.504;2022-07-10T17:07:19;3.30;;;3.30;;
71176;SDS011;58877;51.992;4.504;2022-07-10T17:09:44;3.44;;;3.44;;
71176;SDS011;58877;51.992;4.504;2022-07-10T17:12:10;3.11;;;3.11;;
71176;SDS011;58877;51.992;4.504;2022-07-10T17:14:36;3.16;;;3.16;;
71176;SDS011;58877;51.992;4.504;2022-07-10T17:17:01;3.15;;;3.15;;
71176;SDS011;58877;51.992;4.504;2022-07-10T17:19:27;3.09;;;3.09;;
71176;SDS011;58877;51.992;4.504;2022-07-10T17:21:54;3.06;;;3.06;;
71176;SDS011;58877;51.992;4.504;2022-07-10T17:24:19;3.07;;;3.07;;
71176;SDS011;58877;51.992;4.504;2022-07-10T17:26:45;2.94;;;2.94;;
71176;SDS011;58877;51.992;4.504;2022-07-10T17:29:11;3.58;;;3.58;;
71176;SDS011;58877;51.992;4.504;2022-07-10T17:31:37;3.32;;;3.32;;
71176;SDS011;58877;51.992;4.504;2022-07-10T17:34:03;2.77;;;2.77;;
71176;SDS011;58877;51.992;4.504;2022-07-10T17:36:28;3.61;;;3.61;;
71176;SDS011;58877;51.992;4.504;2022-07-10T17:38:54;3.22;;;3.22;;
71176;SDS011;58877;51.992;4.504;2022-07-10T17:41:20;3.10;;;3.10;;
71176;SDS011;58877;51.992;4.504;2022-07-10T17:43:46;3.16;;;3.16;;
71176;SDS011;58877;51.992;4.504;2022-07-10T17:46:11;2.98;;;2.98;;
71176;SDS011;58877;51.992;4.504;2022-07-10T17:48:37;3.16;;;3.16;;
71176;SDS011;58877;51.992;4.504;2022-07-10T17:51:03;3.22;;;3.22;;
71176;SDS011;58877;51.992;4.504;2022-07-10T17:53:29;3.07;;;3.07;;
71176;SDS011;58877;51.992;4.504;2022-07-10T17:56:13;3.12;;;3.12;;
71176;SDS011;58877;51.992;4.504;2022-07-10T17:58:48;2.81;;;2.81;;
71176;SDS011;58877;51.992;4.504;2022-07-10T18:04:33;2.82;;;2.82;;
71176;SDS011;58877;51.992;4.504;2022-07-10T18:07:07;2.99;;;2.99;;
71176;SDS011;58877;51.992;4.504;2022-07-10T18:09:50;3.00;;;3.00;;
71176;SDS011;58877;51.992;4.504;2022-07-10T18:12:16;2.84;;;2.84;;
71176;SDS011;58877;51.992;4.504;2022-07-10T18:14:41;2.89;;;2.89;;
71176;SDS011;58877;51.992;4.504;2022-07-10T18:17:10;2.91;;;2.91;;
71176;SDS011;58877;51.992;4.504;2022-07-10T18:19:38;2.83;;;2.83;;
71176;SDS011;58877;51.992;4.504;2022-07-10T18:22:03;2.58;;;2.58;;
71176;SDS011;58877;51.992;4.504;2022-07-10T18:24:29;2.83;;;2.83;;